createdAt,value
2023-05-07T00:04:23.976Z,7.91
2023-05-07T00:09:27.901Z,7.92
2023-05-07T00:14:32.139Z,7.92
2023-05-07T00:19:36.221Z,7.91
2023-05-07T00:24:39.959Z,7.89
2023-05-07T00:29:43.831Z,7.91
2023-05-07T00:34:47.517Z,7.92
2023-05-07T00:39:51.379Z,7.90
2023-05-07T00:44:55.093Z,7.89
2023-05-07T00:49:59.393Z,7.89
2023-05-07T00:55:06.622Z,7.89
2023-05-07T01:00:11.861Z,7.89
2023-05-07T01:05:18.051Z,7.87
2023-05-07T01:10:22.753Z,7.85
2023-05-07T01:15:26.948Z,7.82
2023-05-07T01:20:31.938Z,7.82
2023-05-07T01:25:36.060Z,7.79
2023-05-07T01:30:42.655Z,7.78
2023-05-07T01:35:48.655Z,7.77
2023-05-07T01:40:52.784Z,7.76
2023-05-07T01:45:57.614Z,7.77
2023-05-07T01:51:02.094Z,7.77
2023-05-07T01:56:06.793Z,7.76
2023-05-07T02:01:11.622Z,7.75
2023-05-07T02:06:15.642Z,7.73
2023-05-07T02:11:19.870Z,7.74
2023-05-07T02:16:25.162Z,7.74
2023-05-07T02:21:31.135Z,7.74
2023-05-07T02:26:35.724Z,7.74
2023-05-07T02:31:39.634Z,7.73
2023-05-07T02:36:43.588Z,7.70
2023-05-07T02:41:49.796Z,7.65
2023-05-07T02:46:53.596Z,7.62
2023-05-07T02:51:57.529Z,7.61
2023-05-07T02:57:03.454Z,7.59
2023-05-07T03:02:07.398Z,7.58
2023-05-07T03:07:11.288Z,7.59
2023-05-07T03:12:15.023Z,7.59
2023-05-07T03:17:18.906Z,7.58
2023-05-07T03:22:23.095Z,7.58
2023-05-07T03:27:27.002Z,7.57
2023-05-07T03:32:31.283Z,7.53
2023-05-07T03:37:36.436Z,7.53
2023-05-07T03:42:40.440Z,7.51
2023-05-07T03:47:44.435Z,7.52
2023-05-07T03:52:49.791Z,7.52
2023-05-07T03:57:55.270Z,7.52
2023-05-07T04:02:59.344Z,7.49
2023-05-07T04:08:06.815Z,7.47
2023-05-07T04:13:16.919Z,7.47
2023-05-07T04:18:21.532Z,7.49
2023-05-07T04:23:27.030Z,7.50
2023-05-07T04:28:34.105Z,7.50
2023-05-07T04:33:38.441Z,7.60
2023-05-07T04:38:43.912Z,7.70
2023-05-07T04:43:47.746Z,7.82
2023-05-07T04:48:52.458Z,7.98
2023-05-07T04:53:56.354Z,8.01
2023-05-07T04:59:00.672Z,7.92
2023-05-07T05:04:04.936Z,7.89
2023-05-07T05:09:08.952Z,7.87
2023-05-07T05:14:13.448Z,7.84
2023-05-07T05:19:18.272Z,7.77
2023-05-07T05:24:22.338Z,7.72
2023-05-07T05:29:26.690Z,7.72
2023-05-07T05:34:30.484Z,7.73
2023-05-07T05:39:35.068Z,7.81
2023-05-07T05:44:39.229Z,7.94
2023-05-07T05:49:44.603Z,8.02
2023-05-07T05:54:48.997Z,8.09
2023-05-07T05:59:53.699Z,7.99
2023-05-07T06:04:57.590Z,8.02
2023-05-07T06:10:02.281Z,8.17
2023-05-07T06:15:08.725Z,8.22
2023-05-07T06:20:13.180Z,8.22
2023-05-07T06:25:17.531Z,8.25
2023-05-07T06:30:21.574Z,8.30
2023-05-07T06:35:25.421Z,8.26
2023-05-07T06:40:29.330Z,8.27
2023-05-07T06:45:35.635Z,8.26
2023-05-07T06:50:39.939Z,8.26
2023-05-07T06:55:43.820Z,8.19
2023-05-07T07:00:48.369Z,8.10
2023-05-07T07:05:56.157Z,8.22
2023-05-07T07:11:01.827Z,8.40
2023-05-07T07:16:06.454Z,8.45
2023-05-07T07:21:11.040Z,8.60
2023-05-07T07:26:15.154Z,8.75
2023-05-07T07:31:20.180Z,8.60
2023-05-07T07:36:29.436Z,8.48
2023-05-07T07:41:43.787Z,8.45
2023-05-07T07:46:48.407Z,8.49
2023-05-07T07:51:52.499Z,8.41
2023-05-07T07:56:56.502Z,8.36
2023-05-07T08:02:00.810Z,8.32
2023-05-07T08:07:06.127Z,8.28
2023-05-07T08:12:11.655Z,8.33
2023-05-07T08:17:17.382Z,8.41
2023-05-07T08:22:23.330Z,8.38
2023-05-07T08:27:27.732Z,8.44
2023-05-07T08:32:31.680Z,8.48
2023-05-07T08:37:35.656Z,8.24
2023-05-07T08:42:41.718Z,8.10
2023-05-07T08:47:49.308Z,8.06
2023-05-07T08:52:53.528Z,8.19
2023-05-07T08:57:57.906Z,8.47
2023-05-07T09:03:03.106Z,8.55
2023-05-07T09:08:09.975Z,8.53
2023-05-07T09:13:15.987Z,8.56
2023-05-07T09:18:20.653Z,8.63
2023-05-07T09:23:25.985Z,8.59
2023-05-07T09:28:30.844Z,8.61
2023-05-07T09:33:34.898Z,8.97
2023-05-07T09:38:40.915Z,9.34
2023-05-07T09:43:45.281Z,9.68
2023-05-07T09:48:51.279Z,10.08
2023-05-07T09:53:56.224Z,10.25
2023-05-07T09:59:05.221Z,10.37
2023-05-07T10:04:10.123Z,10.35
2023-05-07T10:09:15.468Z,10.43
2023-05-07T10:14:21.400Z,10.52
2023-05-07T10:19:26.324Z,10.82
2023-05-07T10:24:35.287Z,10.99
2023-05-07T10:30:17.034Z,10.94
2023-05-07T10:35:26.553Z,10.96
2023-05-07T10:40:32.281Z,10.82
2023-05-07T10:45:37.118Z,10.72
2023-05-07T10:50:47.524Z,10.81
2023-05-07T10:55:54.012Z,10.64
2023-05-07T11:01:04.742Z,10.69
2023-05-07T11:06:16.748Z,10.83
2023-05-07T11:11:54.156Z,10.88
2023-05-07T11:17:08.433Z,10.88
2023-05-07T11:22:38.473Z,10.76
2023-05-07T11:28:08.111Z,10.62
2023-05-07T11:33:12.482Z,10.82
2023-05-07T11:38:17.529Z,10.68
2023-05-07T11:43:21.690Z,10.59
2023-05-07T11:48:25.806Z,10.69
2023-05-07T11:53:37.822Z,11.03
2023-05-07T11:58:42.776Z,11.27
2023-05-07T12:03:47.672Z,11.13
2023-05-07T12:08:51.636Z,10.94
2023-05-07T12:13:59.827Z,11.01
2023-05-07T12:19:03.804Z,11.20
2023-05-07T12:24:07.757Z,11.16
2023-05-07T12:29:11.809Z,10.93
2023-05-07T12:34:15.774Z,10.83
2023-05-07T12:39:19.770Z,10.91
2023-05-07T12:44:25.324Z,11.29
2023-05-07T12:49:29.401Z,11.29
2023-05-07T12:54:39.382Z,11.16
2023-05-07T12:59:43.949Z,11.42
2023-05-07T13:04:49.350Z,11.48
2023-05-07T13:09:53.207Z,11.45
2023-05-07T13:14:57.211Z,11.31
2023-05-07T13:20:01.148Z,10.93
2023-05-07T13:25:05.216Z,10.70
2023-05-07T13:30:09.640Z,10.84
2023-05-07T13:35:13.544Z,11.02
2023-05-07T13:40:17.772Z,10.94
2023-05-07T13:45:22.392Z,10.73
2023-05-07T13:50:28.336Z,10.54
2023-05-07T13:55:32.199Z,10.45
2023-05-07T14:00:36.159Z,10.33
2023-05-07T14:05:40.057Z,10.23
2023-05-07T14:10:44.135Z,10.19
2023-05-07T14:15:49.974Z,10.20
2023-05-07T14:20:54.028Z,10.20
2023-05-07T14:25:58.710Z,10.27
2023-05-07T14:31:02.820Z,10.33
2023-05-07T14:36:06.852Z,10.40
2023-05-07T14:41:10.709Z,10.51
2023-05-07T14:46:14.604Z,10.46
2023-05-07T14:51:18.881Z,10.31
2023-05-07T14:56:22.973Z,10.27
2023-05-07T15:01:28.114Z,10.29
2023-05-07T15:06:32.771Z,10.26
2023-05-07T15:11:36.675Z,10.20
2023-05-07T15:16:40.912Z,10.25
2023-05-07T15:21:45.009Z,10.35
2023-05-07T15:26:49.226Z,10.39
2023-05-07T15:31:53.459Z,10.43
2023-05-07T15:36:58.575Z,10.38
2023-05-07T15:42:02.668Z,10.21
2023-05-07T15:47:06.529Z,10.08
2023-05-07T15:52:15.024Z,10.06
2023-05-07T15:57:18.813Z,10.07
2023-05-07T16:02:22.586Z,10.03
2023-05-07T16:07:26.737Z,10.05
2023-05-07T16:12:30.693Z,10.10
2023-05-07T16:17:34.459Z,10.10
2023-05-07T16:22:38.416Z,10.06
2023-05-07T16:27:42.311Z,9.97
2023-05-07T16:32:46.281Z,9.97
2023-05-07T16:37:50.115Z,9.94
2023-05-07T16:42:55.546Z,9.88
2023-05-07T16:47:59.743Z,9.86
2023-05-07T16:53:06.089Z,9.81
2023-05-07T16:58:11.971Z,9.72
2023-05-07T17:03:15.762Z,9.69
2023-05-07T17:08:19.826Z,9.69
2023-05-07T17:13:23.823Z,9.69
2023-05-07T17:18:27.904Z,9.65
2023-05-07T17:23:34.424Z,9.62
2023-05-07T17:28:39.954Z,9.57
2023-05-07T17:33:43.637Z,9.50
2023-05-07T17:38:47.377Z,9.45
2023-05-07T17:43:51.399Z,9.43
2023-05-07T17:48:57.254Z,9.39
2023-05-07T17:54:02.009Z,9.35
2023-05-07T17:59:06.480Z,9.31
2023-05-07T18:04:11.957Z,9.25
2023-05-07T18:09:15.632Z,9.21
2023-05-07T18:14:25.618Z,9.18
2023-05-07T18:19:31.212Z,9.14
2023-05-07T18:24:36.554Z,9.11
2023-05-07T18:29:41.093Z,9.07
2023-05-07T18:34:46.700Z,9.02
2023-05-07T18:39:52.809Z,8.98
2023-05-07T18:45:02.226Z,8.95
2023-05-07T18:50:15.462Z,8.90
2023-05-07T18:55:23.034Z,8.87
2023-05-07T19:00:27.766Z,8.84
2023-05-07T19:05:33.513Z,8.81
2023-05-07T19:10:40.997Z,8.79
2023-05-07T19:15:46.317Z,8.77
2023-05-07T19:20:54.696Z,8.74
2023-05-07T19:26:00.782Z,8.71
2023-05-07T19:31:06.756Z,8.67
2023-05-07T19:36:11.816Z,8.63
2023-05-07T19:41:23.682Z,8.61
2023-05-07T19:46:27.747Z,8.59
2023-05-07T19:51:33.582Z,8.57
2023-05-07T19:56:38.826Z,8.57
2023-05-07T20:01:44.783Z,8.58
2023-05-07T20:06:53.621Z,8.59
2023-05-07T20:11:57.648Z,8.58
2023-05-07T20:17:01.924Z,8.57
2023-05-07T20:22:08.659Z,8.54
2023-05-07T20:27:12.619Z,8.52
2023-05-07T20:32:18.980Z,8.48
2023-05-07T20:37:31.203Z,8.45
2023-05-07T20:42:35.896Z,8.43
2023-05-07T20:47:39.693Z,8.39
2023-05-07T20:52:45.559Z,8.36
2023-05-07T20:57:50.923Z,8.31
2023-05-07T21:02:56.240Z,8.21
2023-05-07T21:08:00.092Z,8.02
2023-05-07T21:13:03.810Z,7.83
2023-05-07T21:18:10.295Z,7.63
2023-05-07T21:23:15.761Z,7.45
2023-05-07T21:28:19.617Z,7.29
2023-05-07T21:33:23.544Z,7.13
2023-05-07T21:38:27.363Z,6.93
2023-05-07T21:43:31.806Z,6.73
2023-05-07T21:48:36.071Z,6.54
2023-05-07T21:53:39.991Z,6.38
2023-05-07T21:58:43.801Z,6.19
2023-05-07T22:03:47.758Z,6.00
2023-05-07T22:08:52.342Z,5.79
2023-05-07T22:13:56.054Z,5.60
2023-05-07T22:19:00.122Z,5.42
2023-05-07T22:24:07.899Z,5.25
2023-05-07T22:29:12.517Z,5.10
2023-05-07T22:34:16.573Z,4.94
2023-05-07T22:39:20.498Z,4.84
2023-05-07T22:44:24.523Z,4.77
2023-05-07T22:49:28.846Z,4.70
2023-05-07T22:54:34.757Z,4.63
2023-05-07T22:59:39.796Z,4.53
2023-05-07T23:04:44.290Z,4.45
2023-05-07T23:09:48.684Z,4.37
2023-05-07T23:14:53.025Z,4.28
2023-05-07T23:19:57.870Z,4.19
2023-05-07T23:25:04.044Z,4.12
2023-05-07T23:30:09.293Z,4.06
2023-05-07T23:35:14.558Z,3.95
2023-05-07T23:40:20.437Z,3.85
2023-05-07T23:45:25.616Z,3.78
2023-05-07T23:50:29.870Z,3.70
2023-05-07T23:55:34.285Z,3.66
